createdAt,value
2022-11-06T00:00:46.467Z,6.10
2022-11-06T00:03:14.619Z,6.10
2022-11-06T00:06:01.777Z,6.20
2022-11-06T00:08:33.692Z,6.20
2022-11-06T00:11:04.272Z,6.30
2022-11-06T00:13:32.387Z,6.30
2022-11-06T00:16:06.740Z,6.30
2022-11-06T00:18:36.023Z,6.40
2022-11-06T00:21:10.713Z,6.40
2022-11-06T00:23:40.172Z,6.30
2022-11-06T00:26:10.572Z,6.30
2022-11-06T00:28:39.267Z,6.20
2022-11-06T00:31:12.370Z,6.20
2022-11-06T00:33:41.120Z,6.10
2022-11-06T00:36:21.243Z,6.00
2022-11-06T00:38:52.557Z,5.90
2022-11-06T00:41:22.211Z,5.80
2022-11-06T00:43:51.633Z,5.70
2022-11-06T00:46:21.934Z,5.70
2022-11-06T00:48:51.497Z,5.60
2022-11-06T00:51:22.986Z,5.60
2022-11-06T00:53:57.008Z,5.50
2022-11-06T00:56:26.607Z,5.50
2022-11-06T00:58:56.648Z,5.50
2022-11-06T01:01:30.303Z,5.50
2022-11-06T01:04:01.970Z,5.50
2022-11-06T01:06:33.376Z,5.40
2022-11-06T01:09:02.174Z,5.40
2022-11-06T01:11:52.300Z,5.40
2022-11-06T01:14:24.190Z,5.30
2022-11-06T01:16:54.524Z,5.30
2022-11-06T01:19:24.733Z,5.20
2022-11-06T01:21:54.394Z,5.10
2022-11-06T01:24:25.573Z,5.10
2022-11-06T01:29:43.780Z,5.00
2022-11-06T01:32:13.862Z,4.90
2022-11-06T01:34:42.431Z,4.80
2022-11-06T01:37:14.570Z,4.90
2022-11-06T01:39:44.266Z,5.00
2022-11-06T01:42:13.920Z,5.00
2022-11-06T01:45:38.832Z,5.00
2022-11-06T01:48:09.214Z,5.00
2022-11-06T01:50:38.669Z,5.00
2022-11-06T01:53:08.401Z,5.00
2022-11-06T01:55:41.805Z,5.00
2022-11-06T01:58:16.092Z,5.00
2022-11-06T02:00:45.679Z,5.00
2022-11-06T02:03:16.033Z,5.00
2022-11-06T02:05:45.185Z,5.00
2022-11-06T02:08:17.791Z,5.00
2022-11-06T02:10:47.061Z,5.00
2022-11-06T02:13:33.672Z,5.00
2022-11-06T02:16:19.558Z,5.00
2022-11-06T02:19:13.618Z,5.00
2022-11-06T02:22:22.195Z,5.00
2022-11-06T02:25:19.433Z,5.00
2022-11-06T02:27:57.153Z,5.00
2022-11-06T02:30:25.731Z,5.20
2022-11-06T02:33:01.784Z,5.10
2022-11-06T02:35:36.638Z,5.20
2022-11-06T02:38:11.337Z,5.10
2022-11-06T02:40:46.530Z,5.20
2022-11-06T02:43:20.144Z,5.20
2022-11-06T02:45:56.834Z,5.30
2022-11-06T02:48:32.402Z,5.20
2022-11-06T02:51:06.531Z,5.30
2022-11-06T02:53:39.217Z,5.30
2022-11-06T02:56:13.651Z,5.30
2022-11-06T02:58:50.576Z,5.30
2022-11-06T03:01:29.162Z,5.40
2022-11-06T03:04:04.626Z,5.30
2022-11-06T03:06:43.231Z,5.40
2022-11-06T03:09:18.631Z,5.40
2022-11-06T03:11:59.357Z,5.40
2022-11-06T03:14:37.657Z,5.40
2022-11-06T03:17:16.775Z,5.40
2022-11-06T03:19:54.452Z,5.20
2022-11-06T03:22:31.861Z,5.20
2022-11-06T03:25:14.194Z,5.20
2022-11-06T03:27:53.787Z,5.10
2022-11-06T03:30:23.835Z,5.20
2022-11-06T03:33:00.193Z,5.20
2022-11-06T03:35:36.516Z,5.10
2022-11-06T03:38:11.923Z,5.10
2022-11-06T03:40:47.011Z,5.10
2022-11-06T03:43:21.072Z,5.10
2022-11-06T03:45:54.709Z,5.20
2022-11-06T03:48:32.953Z,5.10
2022-11-06T03:51:09.305Z,5.10
2022-11-06T03:53:45.446Z,5.10
2022-11-06T03:56:19.601Z,5.00
2022-11-06T03:58:51.714Z,5.00
2022-11-06T04:01:30.379Z,5.00
2022-11-06T04:04:07.032Z,4.80
2022-11-06T04:06:42.401Z,4.70
2022-11-06T04:09:33.912Z,4.70
2022-11-06T04:12:23.748Z,4.60
2022-11-06T04:14:58.976Z,4.70
2022-11-06T04:17:31.268Z,4.70
2022-11-06T04:20:03.545Z,4.70
2022-11-06T04:22:47.239Z,4.70
2022-11-06T04:26:02.959Z,4.80
2022-11-06T04:28:41.199Z,4.80
2022-11-06T04:31:18.030Z,4.70
2022-11-06T04:33:58.813Z,4.70
2022-11-06T04:36:41.612Z,4.70
2022-11-06T04:39:22.516Z,4.70
2022-11-06T04:42:05.128Z,4.70
2022-11-06T04:44:39.798Z,4.60
2022-11-06T04:47:11.009Z,4.60
2022-11-06T04:49:44.608Z,4.60
2022-11-06T04:52:19.857Z,4.60
2022-11-06T04:54:49.832Z,4.60
2022-11-06T04:57:19.197Z,4.60
2022-11-06T04:59:47.946Z,4.60
2022-11-06T05:02:16.138Z,4.60
2022-11-06T05:04:46.384Z,4.60
2022-11-06T05:07:16.374Z,4.60
2022-11-06T05:09:45.601Z,4.50
2022-11-06T05:12:14.482Z,4.50
2022-11-06T05:14:42.756Z,4.40
2022-11-06T05:17:11.237Z,4.40
2022-11-06T05:19:39.428Z,4.50
2022-11-06T05:22:29.036Z,4.50
2022-11-06T05:24:57.622Z,4.50
2022-11-06T05:27:26.913Z,4.50
2022-11-06T05:29:55.084Z,4.40
2022-11-06T05:32:23.239Z,4.40
2022-11-06T05:34:51.692Z,4.40
2022-11-06T05:37:21.127Z,4.30
2022-11-06T05:39:50.129Z,4.20
2022-11-06T05:42:18.724Z,4.10
2022-11-06T05:44:46.837Z,4.10
2022-11-06T05:47:15.338Z,4.10
2022-11-06T05:49:44.306Z,4.10
2022-11-06T05:52:13.051Z,4.00
2022-11-06T05:54:43.237Z,4.00
2022-11-06T05:57:11.684Z,4.10
2022-11-06T05:59:40.594Z,4.10
2022-11-06T06:02:09.361Z,4.00
2022-11-06T06:04:38.224Z,4.10
2022-11-06T06:07:06.417Z,4.10
2022-11-06T06:09:34.464Z,4.10
2022-11-06T06:12:05.093Z,4.10
2022-11-06T06:14:34.213Z,4.10
2022-11-06T06:17:02.376Z,4.10
2022-11-06T06:19:31.216Z,4.10
2022-11-06T06:21:59.702Z,4.10
2022-11-06T06:24:28.337Z,4.10
2022-11-06T06:26:56.944Z,4.10
2022-11-06T06:29:26.442Z,4.10
2022-11-06T06:31:55.043Z,4.10
2022-11-06T06:34:23.447Z,4.10
2022-11-06T06:36:53.960Z,4.10
2022-11-06T06:39:22.810Z,4.10
2022-11-06T06:41:51.970Z,4.20
2022-11-06T06:44:20.092Z,4.20
2022-11-06T06:46:49.687Z,4.20
2022-11-06T06:49:18.727Z,4.30
2022-11-06T06:51:49.299Z,4.30
2022-11-06T06:54:17.970Z,4.30
2022-11-06T06:56:46.176Z,4.40
2022-11-06T06:59:15.028Z,4.50
2022-11-06T07:01:43.925Z,4.50
2022-11-06T07:04:13.988Z,4.60
2022-11-06T07:06:43.998Z,4.60
2022-11-06T07:09:12.203Z,4.60
2022-11-06T07:11:40.707Z,4.70
2022-11-06T07:14:09.870Z,4.70
2022-11-06T07:16:38.075Z,4.70
2022-11-06T07:19:06.255Z,4.70
2022-11-06T07:21:35.741Z,4.80
2022-11-06T07:24:03.891Z,4.80
2022-11-06T07:26:32.109Z,4.90
2022-11-06T07:29:00.412Z,5.00
2022-11-06T07:31:29.259Z,5.00
2022-11-06T07:33:58.099Z,5.10
2022-11-06T07:36:26.253Z,5.20
2022-11-06T07:38:55.719Z,5.30
2022-11-06T07:41:24.910Z,5.40
2022-11-06T07:43:53.368Z,5.50
2022-11-06T07:46:21.494Z,5.50
2022-11-06T07:48:50.135Z,5.60
2022-11-06T07:51:19.250Z,5.60
2022-11-06T07:53:47.491Z,5.60
2022-11-06T07:56:18.261Z,5.60
2022-11-06T07:58:47.819Z,5.60
2022-11-06T08:01:19.022Z,5.70
2022-11-06T08:03:47.377Z,5.80
2022-11-06T08:06:15.539Z,5.90
2022-11-06T08:08:44.226Z,6.00
2022-11-06T08:11:14.157Z,6.00
2022-11-06T08:13:45.091Z,6.10
2022-11-06T08:16:15.659Z,6.10
2022-11-06T08:18:44.939Z,6.20
2022-11-06T08:21:13.034Z,6.30
2022-11-06T08:23:41.454Z,6.40
2022-11-06T08:26:09.974Z,6.40
2022-11-06T08:28:38.270Z,6.60
2022-11-06T08:31:09.803Z,6.80
2022-11-06T08:33:39.714Z,6.90
2022-11-06T08:36:10.300Z,7.00
2022-11-06T08:38:38.433Z,7.10
2022-11-06T08:41:08.295Z,7.30
2022-11-06T08:43:37.224Z,7.50
2022-11-06T08:46:08.039Z,7.70
2022-11-06T08:48:37.650Z,7.80
2022-11-06T08:51:07.002Z,8.00
2022-11-06T08:53:36.212Z,8.20
2022-11-06T08:56:06.266Z,8.40
2022-11-06T08:58:35.416Z,8.60
2022-11-06T09:01:03.887Z,8.70
2022-11-06T09:03:33.785Z,8.80
2022-11-06T09:06:01.956Z,8.90
2022-11-06T09:08:30.648Z,9.00
2022-11-06T09:11:00.159Z,9.10
2022-11-06T09:13:28.317Z,9.30
2022-11-06T09:15:56.659Z,9.40
2022-11-06T09:18:24.758Z,9.70
2022-11-06T09:20:57.767Z,9.70
2022-11-06T09:23:26.705Z,9.80
2022-11-06T09:25:55.140Z,9.90
2022-11-06T09:28:23.545Z,10.10
2022-11-06T09:30:51.795Z,10.30
2022-11-06T09:33:21.162Z,10.40
2022-11-06T09:35:49.561Z,10.40
2022-11-06T09:38:19.741Z,10.30
2022-11-06T09:40:53.894Z,10.30
2022-11-06T09:44:16.853Z,10.40
2022-11-06T09:46:42.795Z,10.40
2022-11-06T09:49:23.699Z,10.60
2022-11-06T09:51:59.015Z,10.70
2022-11-06T09:54:35.840Z,10.80
2022-11-06T09:57:13.051Z,11.00
2022-11-06T09:59:42.746Z,11.10
2022-11-06T10:02:28.547Z,11.40
2022-11-06T10:05:10.237Z,11.70
2022-11-06T10:07:42.472Z,12.00
2022-11-06T10:10:20.452Z,12.30
2022-11-06T10:13:17.478Z,12.60
2022-11-06T10:15:56.288Z,12.90
2022-11-06T10:18:38.754Z,13.30
2022-11-06T10:21:16.531Z,13.30
2022-11-06T10:23:52.357Z,13.60
2022-11-06T10:26:34.440Z,13.50
2022-11-06T10:29:33.255Z,13.60
2022-11-06T10:32:29.433Z,13.70
2022-11-06T10:35:03.885Z,13.90
2022-11-06T10:37:42.152Z,14.20
2022-11-06T10:40:19.943Z,14.40
2022-11-06T10:43:02.748Z,14.50
2022-11-06T10:45:32.156Z,14.50
2022-11-06T10:48:11.797Z,14.40
2022-11-06T10:50:51.689Z,14.60
2022-11-06T10:53:35.966Z,14.80
2022-11-06T10:56:53.686Z,15.30
2022-11-06T10:59:23.297Z,15.80
2022-11-06T11:01:52.078Z,16.10
2022-11-06T11:04:21.477Z,16.10
2022-11-06T11:06:49.978Z,16.20
2022-11-06T11:09:31.338Z,16.20
2022-11-06T11:12:00.375Z,16.40
2022-11-06T11:14:33.095Z,16.60
2022-11-06T11:17:02.849Z,16.60
2022-11-06T11:19:41.609Z,16.80
2022-11-06T11:22:28.913Z,17.30
2022-11-06T11:25:03.583Z,18.00
2022-11-06T11:27:37.772Z,18.60
2022-11-06T11:30:21.786Z,18.90
2022-11-06T11:32:50.683Z,19.40
2022-11-06T11:35:26.307Z,20.00
2022-11-06T11:38:08.119Z,20.50
2022-11-06T11:40:39.302Z,20.50
2022-11-06T11:43:27.100Z,20.20
2022-11-06T11:46:19.223Z,20.00
2022-11-06T11:48:52.198Z,19.80
2022-11-06T11:51:34.994Z,19.10
2022-11-06T11:54:17.168Z,18.90
2022-11-06T11:57:04.603Z,18.70
2022-11-06T11:59:42.684Z,18.00
2022-11-06T12:02:27.377Z,17.10
2022-11-06T12:05:02.335Z,16.50
2022-11-06T12:07:39.729Z,16.30
2022-11-06T12:10:30.646Z,15.90
2022-11-06T12:13:01.350Z,15.70
2022-11-06T12:15:39.908Z,15.30
2022-11-06T12:18:16.770Z,15.20
2022-11-06T12:20:56.529Z,15.00
2022-11-06T12:23:32.482Z,14.80
2022-11-06T12:26:13.422Z,14.80
2022-11-06T12:28:46.090Z,14.90
2022-11-06T12:31:26.731Z,14.90
2022-11-06T12:34:06.763Z,14.60
2022-11-06T12:36:45.115Z,14.40
2022-11-06T12:39:20.744Z,14.30
2022-11-06T12:41:54.563Z,14.30
2022-11-06T12:44:23.015Z,14.20
2022-11-06T12:47:01.779Z,14.20
2022-11-06T12:50:05.533Z,14.10
2022-11-06T12:52:48.881Z,14.20
2022-11-06T12:55:25.723Z,14.20
2022-11-06T12:58:15.049Z,14.20
2022-11-06T13:01:01.783Z,14.30
2022-11-06T13:03:58.947Z,14.30
2022-11-06T13:07:04.234Z,14.20
2022-11-06T13:09:42.965Z,14.20
2022-11-06T13:12:22.977Z,14.10
2022-11-06T13:15:07.588Z,14.00
2022-11-06T13:17:50.665Z,13.90
2022-11-06T13:20:30.522Z,13.70
2022-11-06T13:23:11.668Z,13.70
2022-11-06T13:25:54.318Z,13.70
2022-11-06T13:28:31.833Z,13.60
2022-11-06T13:31:04.601Z,13.60
2022-11-06T13:33:41.088Z,13.60
2022-11-06T13:36:11.026Z,13.50
2022-11-06T13:38:49.089Z,13.50
2022-11-06T13:41:24.002Z,13.50
2022-11-06T13:43:59.955Z,13.40
2022-11-06T13:46:39.331Z,13.40
2022-11-06T13:49:23.666Z,13.30
2022-11-06T13:51:56.942Z,13.10
2022-11-06T13:54:51.762Z,13.00
2022-11-06T13:58:00.212Z,13.00
2022-11-06T14:00:40.993Z,12.90
2022-11-06T14:03:54.086Z,12.80
2022-11-06T14:06:25.978Z,12.90
2022-11-06T14:08:58.065Z,12.80
2022-11-06T14:11:32.423Z,12.90
2022-11-06T14:14:04.815Z,12.90
2022-11-06T14:16:35.037Z,12.90
2022-11-06T14:19:10.757Z,12.80
2022-11-06T14:21:50.278Z,12.80
2022-11-06T14:24:42.599Z,12.70
2022-11-06T14:28:06.276Z,12.70
2022-11-06T14:31:10.971Z,12.80
2022-11-06T14:34:01.945Z,12.80
2022-11-06T14:36:38.031Z,12.80
2022-11-06T14:39:14.364Z,12.70
2022-11-06T14:42:00.519Z,12.70
2022-11-06T14:44:51.866Z,12.60
2022-11-06T14:47:34.149Z,12.60
2022-11-06T14:50:09.690Z,12.60
2022-11-06T14:52:46.307Z,12.50
2022-11-06T14:55:31.773Z,12.50
2022-11-06T14:58:18.755Z,12.40
2022-11-06T15:00:55.694Z,12.40
2022-11-06T15:03:33.291Z,12.40
2022-11-06T15:06:08.216Z,12.20
2022-11-06T15:09:01.801Z,12.20
2022-11-06T15:11:57.848Z,12.00
2022-11-06T15:14:56.346Z,11.80
2022-11-06T15:17:29.784Z,11.70
2022-11-06T15:20:23.227Z,11.70
2022-11-06T15:23:08.186Z,11.60
2022-11-06T15:25:42.263Z,11.60
2022-11-06T15:28:19.407Z,11.50
2022-11-06T15:30:53.058Z,11.50
2022-11-06T15:33:34.455Z,11.40
2022-11-06T15:36:09.157Z,11.40
2022-11-06T15:38:43.489Z,11.30
2022-11-06T15:41:19.068Z,11.30
2022-11-06T15:43:50.705Z,11.20
2022-11-06T15:46:22.952Z,11.20
2022-11-06T15:49:09.510Z,11.20
2022-11-06T15:51:41.276Z,11.00
2022-11-06T15:54:15.267Z,11.00
2022-11-06T15:56:45.124Z,11.00
2022-11-06T15:59:17.303Z,11.00
2022-11-06T16:01:49.403Z,11.00
2022-11-06T16:04:24.072Z,11.00
2022-11-06T16:06:55.035Z,11.00
2022-11-06T16:12:15.920Z,11.00
2022-11-06T16:14:47.235Z,10.90
2022-11-06T16:17:25.250Z,10.90
2022-11-06T16:19:59.707Z,10.80
2022-11-06T16:22:34.434Z,10.80
2022-11-06T16:25:07.454Z,10.80
2022-11-06T16:27:41.889Z,10.70
2022-11-06T16:30:25.253Z,10.60
2022-11-06T16:32:53.969Z,10.70
2022-11-06T16:35:35.026Z,10.70
2022-11-06T16:38:41.531Z,10.60
2022-11-06T16:41:38.121Z,10.60
2022-11-06T16:44:30.752Z,10.70
2022-11-06T16:47:15.785Z,10.60
2022-11-06T16:49:52.882Z,10.50
2022-11-06T16:52:32.509Z,10.50
2022-11-06T16:55:05.683Z,10.40
2022-11-06T16:57:43.672Z,10.30
2022-11-06T17:00:29.164Z,10.20
2022-11-06T17:03:01.881Z,10.20
2022-11-06T17:05:33.775Z,10.10
2022-11-06T17:08:23.710Z,10.10
2022-11-06T17:10:53.176Z,10.10
2022-11-06T17:13:23.457Z,10.10
2022-11-06T17:15:56.172Z,10.20
2022-11-06T17:18:28.441Z,10.20
2022-11-06T17:21:00.093Z,10.20
2022-11-06T17:23:32.444Z,10.20
2022-11-06T17:26:03.484Z,10.20
2022-11-06T17:28:32.241Z,10.10
2022-11-06T17:31:00.594Z,10.20
2022-11-06T17:33:30.501Z,10.20
2022-11-06T17:35:59.730Z,10.20
2022-11-06T17:38:30.218Z,10.30
2022-11-06T17:40:58.362Z,10.20
2022-11-06T17:43:26.500Z,10.20
2022-11-06T17:45:56.145Z,10.10
2022-11-06T17:48:24.595Z,10.10
2022-11-06T17:51:10.486Z,10.10
2022-11-06T17:53:41.446Z,10.10
2022-11-06T17:56:10.028Z,10.00
2022-11-06T17:58:38.692Z,10.00
2022-11-06T18:01:09.637Z,9.90
2022-11-06T18:03:44.699Z,9.90
2022-11-06T18:06:15.642Z,9.90
2022-11-06T18:08:45.619Z,10.00
2022-11-06T18:11:14.745Z,10.00
2022-11-06T18:13:45.309Z,10.00
2022-11-06T18:16:18.402Z,10.00
2022-11-06T18:18:46.962Z,10.10
2022-11-06T18:21:17.265Z,10.10
2022-11-06T18:23:46.744Z,10.10
2022-11-06T18:26:15.527Z,10.00
2022-11-06T18:28:44.759Z,10.10
2022-11-06T18:31:13.052Z,10.00
2022-11-06T18:33:43.581Z,10.00
2022-11-06T18:36:13.113Z,10.00
2022-11-06T18:38:43.312Z,10.00
2022-11-06T18:41:15.715Z,10.00
2022-11-06T18:43:44.612Z,10.00
2022-11-06T18:46:16.211Z,10.00
2022-11-06T18:48:45.095Z,10.00
2022-11-06T18:51:32.435Z,10.00
2022-11-06T18:54:07.324Z,10.10
2022-11-06T18:56:38.457Z,10.10
2022-11-06T18:59:10.353Z,10.10
2022-11-06T19:01:39.020Z,10.10
2022-11-06T19:04:11.016Z,10.10
2022-11-06T19:06:40.968Z,10.10
2022-11-06T19:09:11.000Z,10.10
2022-11-06T19:11:40.785Z,10.10
2022-11-06T19:14:09.956Z,10.10
2022-11-06T19:16:38.843Z,10.20
2022-11-06T19:19:07.640Z,10.20
2022-11-06T19:21:36.780Z,10.50
2022-11-06T19:24:06.651Z,11.00
2022-11-06T19:26:36.956Z,10.80
2022-11-06T19:29:08.670Z,10.90
2022-11-06T19:31:39.326Z,11.10
2022-11-06T19:34:10.254Z,11.10
2022-11-06T19:36:38.343Z,11.20
2022-11-06T19:39:07.644Z,11.20
2022-11-06T19:41:35.814Z,11.30
2022-11-06T19:44:03.927Z,11.30
2022-11-06T19:46:35.978Z,11.40
2022-11-06T19:49:05.681Z,11.40
2022-11-06T19:51:37.735Z,11.40
2022-11-06T19:54:07.759Z,11.50
2022-11-06T19:56:36.388Z,11.50
2022-11-06T19:59:25.059Z,11.50
2022-11-06T20:01:54.595Z,11.50
2022-11-06T20:04:22.766Z,11.60
2022-11-06T20:06:51.778Z,11.60
2022-11-06T20:09:19.895Z,11.60
2022-11-06T20:11:47.952Z,11.60
2022-11-06T20:14:21.610Z,11.60
2022-11-06T20:16:50.053Z,11.70
2022-11-06T20:19:19.805Z,11.70
2022-11-06T20:21:48.675Z,11.70
2022-11-06T20:24:17.111Z,11.70
2022-11-06T20:26:45.556Z,11.80
2022-11-06T20:29:13.692Z,11.80
2022-11-06T20:31:42.577Z,11.90
2022-11-06T20:34:11.118Z,11.90
2022-11-06T20:36:40.609Z,11.90
2022-11-06T20:39:09.776Z,11.90
2022-11-06T20:41:38.067Z,12.00
2022-11-06T20:44:06.567Z,12.10
2022-11-06T20:46:34.742Z,12.00
2022-11-06T20:49:03.290Z,12.00
2022-11-06T20:51:42.990Z,12.00
2022-11-06T20:54:23.126Z,12.00
2022-11-06T20:56:51.657Z,12.00
2022-11-06T20:59:20.121Z,12.00
2022-11-06T21:01:48.818Z,12.10
2022-11-06T21:04:17.307Z,12.10
2022-11-06T21:06:45.539Z,12.20
2022-11-06T21:09:13.923Z,12.20
2022-11-06T21:11:44.064Z,12.20
2022-11-06T21:14:12.550Z,12.20
2022-11-06T21:16:41.415Z,12.20
2022-11-06T21:19:10.164Z,12.30
2022-11-06T21:21:38.426Z,12.30
2022-11-06T21:24:10.796Z,12.30
2022-11-06T21:26:39.870Z,12.20
2022-11-06T21:29:12.037Z,12.20
2022-11-06T21:31:48.419Z,12.20
2022-11-06T21:34:18.934Z,12.20
2022-11-06T21:36:48.429Z,12.30
2022-11-06T21:39:19.283Z,12.20
2022-11-06T21:41:49.109Z,12.20
2022-11-06T21:44:19.672Z,12.20
2022-11-06T21:46:48.691Z,12.20
2022-11-06T21:49:16.996Z,12.20
2022-11-06T21:51:45.435Z,12.20
2022-11-06T21:54:32.353Z,12.20
2022-11-06T21:57:00.522Z,12.00
2022-11-06T21:59:31.682Z,11.90
2022-11-06T22:02:00.086Z,11.70
2022-11-06T22:04:29.293Z,11.70
2022-11-06T22:06:57.377Z,11.60
2022-11-06T22:09:26.840Z,11.60
2022-11-06T22:11:55.008Z,11.50
2022-11-06T22:14:23.603Z,11.40
2022-11-06T22:16:54.076Z,11.30
2022-11-06T22:19:22.246Z,11.20
2022-11-06T22:21:51.089Z,11.30
2022-11-06T22:24:19.277Z,11.10
2022-11-06T23:10:42.734Z,10.90
2022-11-06T23:13:12.541Z,10.90
2022-11-06T23:15:41.395Z,10.90
2022-11-06T23:18:09.540Z,11.00
2022-11-06T23:20:39.592Z,11.00
2022-11-06T23:23:07.870Z,11.00
2022-11-06T23:25:36.710Z,10.90
2022-11-06T23:28:07.085Z,11.00
2022-11-06T23:30:36.469Z,11.00
2022-11-06T23:33:04.729Z,11.00
2022-11-06T23:35:33.294Z,10.90
2022-11-06T23:38:01.550Z,11.00
2022-11-06T23:40:30.429Z,11.10
2022-11-06T23:42:59.017Z,11.10
2022-11-06T23:45:46.553Z,11.10
2022-11-06T23:48:15.900Z,11.10
2022-11-06T23:50:47.304Z,11.10
2022-11-06T23:53:17.209Z,11.20
2022-11-06T23:55:46.022Z,11.30
2022-11-06T23:58:14.496Z,11.30
